This is the latest recevied weather packets stored in our database for station/object KI5RAB. If no packets are shown the sender has not sent any weather packets the latest 10 day(s).
| Time | Temp. | Humidity | Pressure | Rain* | Wind** | Luminosity | Snow |
|---|---|---|---|---|---|---|---|
| 1777644845 | 15.56° C | 98% | 1014.8 hPa | 0 mm | - | 22 W/m² | - |
| 1777644543 | 15.56° C | 98% | 1014.7 hPa | 0 mm | - | 15 W/m² | - |
| 1777644239 | 15.56° C | 98% | 1015.1 hPa | 0 mm | - | 15 W/m² | - |
| 1777643935 | 15.56° C | 98% | 1015.4 hPa | 0 mm | - | 15 W/m² | - |
| 1777643633 | 15.56° C | 98% | 1015.1 hPa | 1.78 mm | - | 19 W/m² | - |
| 1777643026 | 15.56° C | 98% | 1015.2 hPa | 0 mm | - | 33 W/m² | - |
| 1777642723 | 15.56° C | 98% | 1015.6 hPa | 0 mm | - | 36 W/m² | - |
| 1777642420 | 15.56° C | 98% | 1016.4 hPa | 3.05 mm | - | 22 W/m² | - |
| 1777642116 | 15.56° C | 98% | 1016.2 hPa | 14.99 mm | - | 29 W/m² | - |
| 1777641812 | 15.56° C | 98% | 1016.8 hPa | 19.81 mm | - | 25 W/m² | - |
| 1777641507 | 15.56° C | 98% | 1015.9 hPa | 10.67 mm | - | 28 W/m² | - |
| 1777641203 | 15.56° C | 98% | 1018.4 hPa | 3.05 mm | - | 8 W/m² | - |
| 1777640899 | 16.11° C | 98% | 1018.5 hPa | 6.1 mm | - | 1 W/m² | - |
| 1777640293 | 15.56° C | 98% | 1016.1 hPa | 10.67 mm | - | 10 W/m² | - |
| 1777639990 | 15.56° C | 98% | 1015.8 hPa | 3.05 mm | - | 9 W/m² | - |
| 1777639085 | 15.56° C | 98% | 1014.7 hPa | 6.1 mm | - | 3 W/m² | - |
| 1777638783 | 16.11° C | 98% | 1014.9 hPa | 6.1 mm | - | 4 W/m² | - |
| 1777638478 | 16.11° C | 98% | 1015.2 hPa | 1.27 mm | - | 4 W/m² | - |
| 1777638175 | 15.56° C | 98% | 1015.7 hPa | 0 mm | - | 5 W/m² | - |
| 1777637870 | 16.11° C | 98% | 1014.9 hPa | 0 mm | - | 2 W/m² | - |
| 1777637264 | 16.11° C | 98% | 1014.6 hPa | 0 mm | - | 3 W/m² | - |
| 1777636962 | 16.11° C | 98% | 1014.5 hPa | 0 mm | - | 4 W/m² | - |
| 1777636657 | 16.11° C | 98% | 1014.4 hPa | 0 mm | - | 3 W/m² | - |
| 1777636053 | 16.11° C | 98% | 1014.7 hPa | 0 mm | - | 1 W/m² | - |
| 1777635750 | 16.11° C | 98% | 1014.7 hPa | 0 mm | - | 0 W/m² | - |
* Rain latest hour (hover to see other rain measurements)
** Current wind speed in m/s (hover to see current wind gust speed)